Time;durP1;ratioP1;P1;durP2;ratioP2;P2;SDS_P1;SDS_P2;PMS_P1;PMS_P2;Temp;Humidity;BMP_temperature;BMP_pressure;BME280_temperature;BME280_humidity;BME280_pressure;Samples;Min_cycle;Max_cycle;Signal;HPM_P1;HPM_P2
2022/09/14 00:00:01;;;;;;;11.63;10.43;;;;;;;;;;5057924;28;20222;-89
2022/09/14 00:02:28;;;;;;;11.37;9.93;;;;;;;;;;5038930;28;20199;-87
2022/09/14 00:04:55;;;;;;;9.83;8.33;;;;;;;;;;5039951;28;20230;-88
2022/09/14 00:07:23;;;;;;;10.30;8.63;;;;;;;;;;5040425;28;20202;-89
2022/09/14 00:09:53;;;;;;;9.40;8.40;;;;;;;;;;5039101;28;20238;-88
2022/09/14 00:12:20;;;;;;;10.53;8.90;;;;;;;;;;5038430;28;20203;-87
2022/09/14 00:14:47;;;;;;;15.23;8.63;;;;;;;;;;5038660;28;20242;-89
2022/09/14 00:17:14;;;;;;;11.37;8.30;;;;;;;;;;5038597;28;20218;-88
2022/09/14 00:19:41;;;;;;;9.40;8.37;;;;;;;;;;5038503;28;20610;-88
2022/09/14 00:22:08;;;;;;;9.23;8.33;;;;;;;;;;5038911;28;20203;-88
2022/09/14 00:24:35;;;;;;;8.93;8.13;;;;;;;;;;5039164;28;20234;-88
2022/09/14 00:27:04;;;;;;;13.57;8.43;;;;;;;;;;5038754;28;20206;-87
2022/09/14 00:29:32;;;;;;;8.60;7.70;;;;;;;;;;5035245;28;20231;-88
2022/09/14 00:31:59;;;;;;;11.37;8.40;;;;;;;;;;5034347;28;20717;-88
2022/09/14 00:34:26;;;;;;;10.73;8.43;;;;;;;;;;5034598;28;20230;-88
2022/09/14 00:36:53;;;;;;;9.80;8.80;;;;;;;;;;5036550;28;20206;-88
2022/09/14 00:39:22;;;;;;;10.30;8.50;;;;;;;;;;5034646;28;20230;-88
2022/09/14 00:41:50;;;;;;;12.23;9.13;;;;;;;;;;5035935;28;20265;-88
2022/09/14 00:44:36;;;;;;;12.83;8.27;;;;;;;;;;5033863;28;20238;-88
2022/09/14 00:47:05;;;;;;;9.40;8.10;;;;;;;;;;5034167;28;20229;-88
2022/09/14 00:49:33;;;;;;;10.07;8.10;;;;;;;;;;5033442;28;20309;-89
2022/09/14 00:52:02;;;;;;;13.33;9.20;;;;;;;;;;5040731;28;20672;-89
2022/09/14 00:54:29;;;;;;;11.53;8.50;;;;;;;;;;5039970;28;20227;-89
2022/09/14 00:56:58;;;;;;;10.70;8.87;;;;;;;;;;5036547;28;20206;-89
2022/09/14 00:59:27;;;;;;;10.30;8.27;;;;;;;;;;5034199;28;20235;-90
2022/09/14 01:01:55;;;;;;;10.60;8.97;;;;;;;;;;5039428;28;20202;-90
2022/09/14 01:04:23;;;;;;;14.13;8.80;;;;;;;;;;5034544;28;20222;-90
2022/09/14 01:06:56;;;;;;;9.57;8.60;;;;;;;;;;5033965;28;20230;-89
2022/09/14 01:09:28;;;;;;;10.87;8.63;;;;;;;;;;5033268;28;20729;-90
2022/09/14 01:12:01;;;;;;;10.10;9.03;;;;;;;;;;5033341;28;20270;-90
2022/09/14 01:14:33;;;;;;;12.83;8.73;;;;;;;;;;5033040;28;20231;-89
2022/09/14 01:17:06;;;;;;;11.07;9.30;;;;;;;;;;5034149;28;20282;-89
2022/09/14 01:19:45;;;;;;;9.87;8.47;;;;;;;;;;5033321;28;20234;-88
2022/09/14 01:22:15;;;;;;;11.00;8.80;;;;;;;;;;5033924;28;20226;-89
2022/09/14 01:24:46;;;;;;;10.77;8.93;;;;;;;;;;5033045;28;20729;-88
2022/09/14 01:27:29;;;;;;;11.77;9.57;;;;;;;;;;5033702;28;20290;-89
2022/09/14 01:30:05;;;;;;;10.73;9.37;;;;;;;;;;5033202;28;20238;-86
2022/09/14 01:32:34;;;;;;;12.87;9.93;;;;;;;;;;5033663;28;20675;-87
2022/09/14 01:35:04;;;;;;;13.93;9.53;;;;;;;;;;5033006;28;20607;-89
2022/09/14 01:37:33;;;;;;;10.50;8.63;;;;;;;;;;5033675;28;20218;-88
2022/09/14 01:40:03;;;;;;;13.93;9.53;;;;;;;;;;5033076;28;20238;-88
2022/09/14 01:42:32;;;;;;;11.00;9.03;;;;;;;;;;5032224;28;20847;-89
2022/09/14 01:45:02;;;;;;;10.33;9.07;;;;;;;;;;5032953;28;20257;-89
2022/09/14 01:47:31;;;;;;;12.17;8.33;;;;;;;;;;5033576;28;20207;-88
2022/09/14 01:50:02;;;;;;;11.47;8.63;;;;;;;;;;5043102;28;20222;-86
2022/09/14 01:52:34;;;;;;;7.27;6.57;;;;;;;;;;5040057;28;20659;-87
2022/09/14 01:55:04;;;;;;;9.40;7.30;;;;;;;;;;5034311;28;20239;-89
2022/09/14 01:57:34;;;;;;;12.10;7.00;;;;;;;;;;5034157;28;20665;-87
2022/09/14 02:00:03;;;;;;;9.23;6.93;;;;;;;;;;5032913;28;20241;-88
2022/09/14 02:02:32;;;;;;;9.33;6.77;;;;;;;;;;5033080;28;20207;-89
2022/09/14 02:05:02;;;;;;;7.90;6.83;;;;;;;;;;5034442;28;20262;-88
2022/09/14 02:07:29;;;;;;;8.47;6.90;;;;;;;;;;5033571;28;20268;-89
2022/09/14 02:09:58;;;;;;;10.00;7.33;;;;;;;;;;5032790;28;20242;-89
2022/09/14 02:12:25;;;;;;;11.17;7.10;;;;;;;;;;5033474;28;20264;-89
2022/09/14 02:14:54;;;;;;;9.13;7.97;;;;;;;;;;5032477;28;20238;-88
2022/09/14 02:17:22;;;;;;;11.23;8.27;;;;;;;;;;5033011;28;20210;-89
2022/09/14 02:19:51;;;;;;;11.60;7.73;;;;;;;;;;5032099;28;20613;-89
2022/09/14 02:22:18;;;;;;;10.23;8.37;;;;;;;;;;5037389;28;20581;-88
2022/09/14 02:24:45;;;;;;;9.17;8.07;;;;;;;;;;5034179;28;20245;-88
2022/09/14 02:27:12;;;;;;;9.30;8.10;;;;;;;;;;5033186;28;20221;-89
2022/09/14 02:29:40;;;;;;;9.47;8.13;;;;;;;;;;5032159;28;20237;-88
2022/09/14 02:32:15;;;;;;;9.17;7.67;;;;;;;;;;5032385;28;20260;-88
2022/09/14 02:34:48;;;;;;;9.40;8.40;;;;;;;;;;5031686;28;20242;-88
2022/09/14 02:37:18;;;;;;;9.53;8.53;;;;;;;;;;5032609;28;20187;-88
2022/09/14 02:39:51;;;;;;;10.40;8.40;;;;;;;;;;5031502;28;20318;-88
2022/09/14 02:42:23;;;;;;;11.57;8.50;;;;;;;;;;5031896;28;20272;-88
2022/09/14 02:44:58;;;;;;;11.80;8.30;;;;;;;;;;5032047;28;20269;-88
2022/09/14 02:47:29;;;;;;;9.77;8.70;;;;;;;;;;5032660;28;20686;-88
2022/09/14 02:49:58;;;;;;;10.57;7.80;;;;;;;;;;5031892;28;20231;-88
2022/09/14 02:52:28;;;;;;;10.33;8.07;;;;;;;;;;5032192;28;20214;-87
2022/09/14 02:54:57;;;;;;;12.27;8.63;;;;;;;;;;5035135;28;20292;-85
2022/09/14 02:57:24;;;;;;;10.77;8.90;;;;;;;;;;5035679;28;20323;-86
2022/09/14 02:59:53;;;;;;;14.07;9.60;;;;;;;;;;5035084;28;20238;-88
2022/09/14 03:02:21;;;;;;;12.17;8.77;;;;;;;;;;5035663;28;20297;-88
2022/09/14 03:04:49;;;;;;;10.77;9.07;;;;;;;;;;5035587;28;20231;-88
2022/09/14 03:07:16;;;;;;;10.50;8.57;;;;;;;;;;5036052;28;20682;-88
2022/09/14 03:09:43;;;;;;;9.77;8.40;;;;;;;;;;5036036;28;20242;-88
2022/09/14 03:12:10;;;;;;;10.30;8.73;;;;;;;;;;5038799;28;20199;-89
2022/09/14 03:14:37;;;;;;;12.90;8.37;;;;;;;;;;5039999;28;20245;-88
2022/09/14 03:17:04;;;;;;;11.73;8.70;;;;;;;;;;5046087;28;20202;-88
2022/09/14 03:19:31;;;;;;;9.77;8.63;;;;;;;;;;5042022;28;20231;-88
2022/09/14 03:22:00;;;;;;;12.27;8.37;;;;;;;;;;5030203;28;20203;-88
2022/09/14 03:24:27;;;;;;;11.27;8.93;;;;;;;;;;5034549;28;20620;-89
2022/09/14 03:26:54;;;;;;;11.80;8.87;;;;;;;;;;5035003;28;20206;-88
2022/09/14 03:29:21;;;;;;;14.73;9.27;;;;;;;;;;5034221;28;20261;-89
2022/09/14 03:31:48;;;;;;;10.93;9.03;;;;;;;;;;5022370;28;20606;-88
2022/09/14 03:34:15;;;;;;;10.73;8.63;;;;;;;;;;5029642;28;20241;-89
2022/09/14 03:36:42;;;;;;;10.43;8.53;;;;;;;;;;5034885;28;20211;-88
2022/09/14 03:39:11;;;;;;;11.47;9.60;;;;;;;;;;5031307;28;20318;-89
2022/09/14 03:41:38;;;;;;;13.67;9.73;;;;;;;;;;5027597;28;20230;-87
2022/09/14 03:44:05;;;;;;;10.60;8.83;;;;;;;;;;5034326;28;20285;-89
2022/09/14 03:46:32;;;;;;;11.67;9.20;;;;;;;;;;5034971;28;20203;-89
2022/09/14 03:48:59;;;;;;;15.40;9.73;;;;;;;;;;5021675;28;20648;-89
2022/09/14 03:51:26;;;;;;;14.10;9.30;;;;;;;;;;5032590;28;20195;-89
2022/09/14 03:53:54;;;;;;;13.70;9.73;;;;;;;;;;5037135;28;20234;-88
2022/09/14 03:56:23;;;;;;;13.23;10.17;;;;;;;;;;5036651;28;20210;-89
2022/09/14 03:58:51;;;;;;;14.33;9.33;;;;;;;;;;5035255;28;20235;-87
2022/09/14 04:01:19;;;;;;;12.20;9.57;;;;;;;;;;5035605;28;20284;-88
2022/09/14 04:03:46;;;;;;;11.50;8.93;;;;;;;;;;5034989;28;20234;-89
2022/09/14 04:06:14;;;;;;;12.67;8.50;;;;;;;;;;5035085;28;20215;-91
2022/09/14 04:08:41;;;;;;;14.87;9.23;;;;;;;;;;5035101;28;20226;-88
2022/09/14 04:11:09;;;;;;;14.43;9.40;;;;;;;;;;5035258;28;20207;-89
2022/09/14 04:13:38;;;;;;;11.47;8.10;;;;;;;;;;5034313;28;20829;-90
2022/09/14 04:16:05;;;;;;;10.13;7.53;;;;;;;;;;5035319;28;20256;-88
2022/09/14 04:18:33;;;;;;;11.07;8.70;;;;;;;;;;5034338;28;20214;-89
2022/09/14 04:21:01;;;;;;;12.27;8.53;;;;;;;;;;5035303;28;20210;-88
2022/09/14 04:23:28;;;;;;;9.50;7.63;;;;;;;;;;5034513;28;20210;-89
2022/09/14 04:25:55;;;;;;;8.53;7.40;;;;;;;;;;5034538;28;20664;-88
2022/09/14 04:28:23;;;;;;;9.00;7.93;;;;;;;;;;5034865;28;20651;-88
2022/09/14 04:30:59;;;;;;;10.73;8.67;;;;;;;;;;5052754;28;20219;-87
2022/09/14 04:33:26;;;;;;;13.03;8.60;;;;;;;;;;5054640;28;20196;-87
2022/09/14 04:36:01;;;;;;;9.40;8.23;;;;;;;;;;5054403;28;20202;-88
2022/09/14 04:38:28;;;;;;;9.60;8.18;;;;;;;;;;5051953;28;20236;-87
2022/09/14 04:40:56;;;;;;;9.60;7.97;;;;;;;;;;5035951;28;20238;-89
2022/09/14 04:43:23;;;;;;;11.23;8.60;;;;;;;;;;5034228;28;20213;-89
2022/09/14 04:45:50;;;;;;;13.97;9.13;;;;;;;;;;5033684;28;20580;-88
2022/09/14 04:48:18;;;;;;;10.77;8.50;;;;;;;;;;5033910;28;20207;-89
2022/09/14 04:50:45;;;;;;;9.10;8.07;;;;;;;;;;5033175;28;20237;-88
2022/09/14 04:53:13;;;;;;;10.73;7.70;;;;;;;;;;5034330;28;20203;-88
2022/09/14 04:55:40;;;;;;;9.30;7.93;;;;;;;;;;5033444;28;20628;-86
2022/09/14 04:58:07;;;;;;;9.30;7.80;;;;;;;;;;5035864;28;20215;-89
2022/09/14 05:00:35;;;;;;;9.00;6.73;;;;;;;;;;5035325;28;20296;-89
2022/09/14 05:03:03;;;;;;;7.77;6.90;;;;;;;;;;5035711;28;20207;-88
2022/09/14 05:05:31;;;;;;;11.40;7.23;;;;;;;;;;5035214;28;20238;-88
2022/09/14 05:07:58;;;;;;;10.17;7.70;;;;;;;;;;5042010;28;20209;-88
2022/09/14 05:10:25;;;;;;;11.93;6.83;;;;;;;;;;5041894;28;20238;-89
2022/09/14 05:12:52;;;;;;;7.97;6.80;;;;;;;;;;5037565;28;20199;-89
2022/09/14 05:15:19;;;;;;;8.63;6.57;;;;;;;;;;5035259;28;20718;-89
2022/09/14 05:17:47;;;;;;;11.53;7.20;;;;;;;;;;5035853;28;20546;-89
2022/09/14 05:20:14;;;;;;;8.13;6.23;;;;;;;;;;5035438;28;20218;-87
2022/09/14 05:22:42;;;;;;;11.07;7.77;;;;;;;;;;5035202;28;20213;-89
2022/09/14 05:25:17;;;;;;;6.97;6.10;;;;;;;;;;5033785;28;20234;-88
2022/09/14 05:27:44;;;;;;;6.50;5.90;;;;;;;;;;5035571;28;20197;-89
2022/09/14 05:30:12;;;;;;;7.40;6.57;;;;;;;;;;5034072;28;20234;-89
2022/09/14 05:32:40;;;;;;;8.43;7.20;;;;;;;;;;5034452;28;20230;-88
2022/09/14 05:35:13;;;;;;;8.17;6.27;;;;;;;;;;5033693;28;20230;-88
2022/09/14 05:37:40;;;;;;;7.47;6.60;;;;;;;;;;5034772;28;20195;-88
2022/09/14 05:40:09;;;;;;;7.80;6.83;;;;;;;;;;5033042;28;20238;-89
2022/09/14 05:42:36;;;;;;;8.53;6.63;;;;;;;;;;5033180;28;20179;-89
2022/09/14 05:45:04;;;;;;;11.00;7.40;;;;;;;;;;5038034;28;20230;-89
2022/09/14 05:47:31;;;;;;;10.67;7.00;;;;;;;;;;5033726;28;20625;-89
2022/09/14 05:49:58;;;;;;;9.73;6.77;;;;;;;;;;5033413;28;20310;-88
2022/09/14 05:52:25;;;;;;;7.07;6.07;;;;;;;;;;5033447;28;20202;-88
2022/09/14 05:54:52;;;;;;;7.47;5.80;;;;;;;;;;5030529;28;20706;-89
2022/09/14 05:57:21;;;;;;;9.97;6.90;;;;;;;;;;5027019;28;20209;-88
2022/09/14 05:59:48;;;;;;;9.53;7.10;;;;;;;;;;5053885;28;20602;-89
2022/09/14 06:02:16;;;;;;;8.23;6.67;;;;;;;;;;5053499;28;20233;-90
2022/09/14 06:04:43;;;;;;;8.90;7.00;;;;;;;;;;5052549;28;20249;-90
2022/09/14 06:07:12;;;;;;;6.33;5.70;;;;;;;;;;5037548;28;20199;-90
2022/09/14 06:09:39;;;;;;;8.53;6.23;;;;;;;;;;5032275;28;20238;-89
2022/09/14 06:12:06;;;;;;;7.50;6.60;;;;;;;;;;5028562;28;20677;-89
2022/09/14 06:14:35;;;;;;;8.67;7.00;;;;;;;;;;5002945;28;20788;-90
2022/09/14 06:17:04;;;;;;;8.17;6.60;;;;;;;;;;4993630;28;20218;-89
2022/09/14 06:19:31;;;;;;;8.33;6.80;;;;;;;;;;4995197;28;20282;-90
2022/09/14 06:21:58;;;;;;;8.43;6.83;;;;;;;;;;5014133;28;20762;-90
2022/09/14 06:24:25;;;;;;;7.87;6.80;;;;;;;;;;5012870;28;20231;-89
2022/09/14 06:26:52;;;;;;;8.50;6.63;;;;;;;;;;5013249;28;20222;-89
2022/09/14 06:29:19;;;;;;;7.80;7.00;;;;;;;;;;5015841;28;20614;-89
2022/09/14 06:31:55;;;;;;;8.60;7.10;;;;;;;;;;5019674;28;20218;-89
2022/09/14 06:34:24;;;;;;;9.10;7.17;;;;;;;;;;5020573;28;20234;-90
2022/09/14 06:36:51;;;;;;;8.77;6.60;;;;;;;;;;5017318;28;20261;-90
2022/09/14 06:39:18;;;;;;;8.90;6.70;;;;;;;;;;5016203;28;20610;-90
2022/09/14 06:41:47;;;;;;;8.67;7.30;;;;;;;;;;5017014;28;20715;-90
2022/09/14 06:44:14;;;;;;;8.57;7.07;;;;;;;;;;5015873;28;20246;-90
2022/09/14 06:46:41;;;;;;;9.57;7.10;;;;;;;;;;5016217;28;20214;-90
2022/09/14 06:49:11;;;;;;;8.13;6.63;;;;;;;;;;5015258;28;20242;-89
2022/09/14 06:51:40;;;;;;;7.00;6.40;;;;;;;;;;5016334;28;20242;-89
2022/09/14 06:54:08;;;;;;;7.27;6.53;;;;;;;;;;5015518;28;20235;-89
2022/09/14 06:56:36;;;;;;;8.30;6.53;;;;;;;;;;5015944;28;20210;-89
2022/09/14 06:59:03;;;;;;;7.40;6.60;;;;;;;;;;5015148;28;20619;-89
2022/09/14 07:01:30;;;;;;;7.70;6.90;;;;;;;;;;5015546;28;20238;-89
2022/09/14 07:03:57;;;;;;;8.60;6.60;;;;;;;;;;5018513;28;20315;-87
2022/09/14 07:06:26;;;;;;;9.27;7.47;;;;;;;;;;5021928;28;20211;-88
2022/09/14 07:08:54;;;;;;;9.77;8.20;;;;;;;;;;5036860;28;20238;-88
2022/09/14 07:11:22;;;;;;;8.47;7.47;;;;;;;;;;5035329;28;20206;-87
2022/09/14 07:13:49;;;;;;;8.37;7.50;;;;;;;;;;5035172;28;20230;-87
2022/09/14 07:16:16;;;;;;;9.07;8.17;;;;;;;;;;5035344;28;20214;-87
2022/09/14 07:18:43;;;;;;;9.73;8.10;;;;;;;;;;5034665;28;20258;-87
2022/09/14 07:21:11;;;;;;;10.20;9.07;;;;;;;;;;5035231;28;20222;-86
2022/09/14 07:23:39;;;;;;;9.63;8.00;;;;;;;;;;5035359;28;20222;-87
2022/09/14 07:29:13;;;;;;;7.83;7.03;;;;;;;;;;5034600;28;20801;-87
2022/09/14 07:31:41;;;;;;;6.67;5.93;;;;;;;;;;5035337;28;20300;-86
2022/09/14 07:34:09;;;;;;;6.33;5.73;;;;;;;;;;5034751;28;20772;-87
2022/09/14 07:36:43;;;;;;;7.40;6.67;;;;;;;;;;5034983;28;20206;-86
2022/09/14 07:39:11;;;;;;;6.73;6.13;;;;;;;;;;5034783;28;20245;-86
2022/09/14 07:41:39;;;;;;;6.60;6.00;;;;;;;;;;5035245;28;20562;-86
2022/09/14 07:44:09;;;;;;;6.03;5.47;;;;;;;;;;5034618;28;20229;-87
2022/09/14 07:46:39;;;;;;;6.90;6.23;;;;;;;;;;5036186;28;20187;-87
2022/09/14 07:49:07;;;;;;;6.40;5.80;;;;;;;;;;5035184;28;20257;-87
2022/09/14 07:51:35;;;;;;;7.47;5.70;;;;;;;;;;5037625;28;20207;-87
2022/09/14 07:54:03;;;;;;;6.50;5.90;;;;;;;;;;5040563;28;20254;-87
2022/09/14 07:56:30;;;;;;;6.70;6.10;;;;;;;;;;5036351;28;20203;-87
2022/09/14 07:58:58;;;;;;;6.18;5.63;;;;;;;;;;5034242;28;20256;-87
2022/09/14 08:01:28;;;;;;;5.80;5.20;;;;;;;;;;5034565;28;20227;-87
2022/09/14 08:03:57;;;;;;;7.78;4.85;;;;;;;;;;5034372;28;20833;-87
2022/09/14 08:06:26;;;;;;;5.60;5.10;;;;;;;;;;5037281;28;20238;-87
2022/09/14 08:08:54;;;;;;;6.37;5.77;;;;;;;;;;5036956;28;20246;-86
2022/09/14 08:11:22;;;;;;;7.32;5.75;;;;;;;;;;5036639;28;20310;-86
2022/09/14 08:13:50;;;;;;;8.07;5.40;;;;;;;;;;5038163;28;20234;-86
2022/09/14 08:16:17;;;;;;;5.93;4.90;;;;;;;;;;5040960;28;20210;-86
2022/09/14 08:18:45;;;;;;;7.00;6.07;;;;;;;;;;5041134;28;20724;-88
2022/09/14 08:21:14;;;;;;;6.57;5.40;;;;;;;;;;5034614;28;20707;-87
2022/09/14 08:23:41;;;;;;;7.13;5.07;;;;;;;;;;5037481;28;20206;-87
2022/09/14 08:26:09;;;;;;;6.07;4.75;;;;;;;;;;5041420;28;20210;-89
2022/09/14 08:28:37;;;;;;;5.75;5.00;;;;;;;;;;5044291;28;20577;-89
2022/09/14 08:31:04;;;;;;;6.72;5.22;;;;;;;;;;5044312;28;20592;-89
2022/09/14 08:33:32;;;;;;;6.00;5.47;;;;;;;;;;5040794;28;20669;-89
2022/09/14 08:35:59;;;;;;;9.75;6.13;;;;;;;;;;5034336;28;20206;-87
2022/09/14 08:38:42;;;;;;;7.60;5.43;;;;;;;;;;5043699;28;20194;-90
2022/09/14 08:41:12;;;;;;;6.32;5.30;;;;;;;;;;5047928;28;20206;-88
2022/09/14 08:43:40;;;;;;;5.68;5.18;;;;;;;;;;5046430;28;20210;-90
2022/09/14 08:46:10;;;;;;;5.03;4.63;;;;;;;;;;5046050;28;20271;-89
2022/09/14 08:48:38;;;;;;;5.88;5.07;;;;;;;;;;5044251;28;20206;-87
2022/09/14 08:51:06;;;;;;;5.03;4.57;;;;;;;;;;5033846;28;20206;-87
2022/09/14 08:53:35;;;;;;;5.32;4.78;;;;;;;;;;5042921;28;20217;-88
2022/09/14 08:56:07;;;;;;;6.80;5.47;;;;;;;;;;5046696;28;20734;-87
2022/09/14 08:58:42;;;;;;;6.90;5.78;;;;;;;;;;5033851;28;20203;-86
2022/09/14 09:01:12;;;;;;;6.72;5.85;;;;;;;;;;5033503;28;20191;-87
2022/09/14 09:03:45;;;;;;;6.95;5.80;;;;;;;;;;5032959;28;20221;-87
2022/09/14 09:06:15;;;;;;;6.72;6.13;;;;;;;;;;5033543;28;20179;-87
2022/09/14 09:08:47;;;;;;;6.70;6.00;;;;;;;;;;5032980;28;20249;-86
2022/09/14 09:11:18;;;;;;;7.10;6.32;;;;;;;;;;5034014;28;20198;-87
2022/09/14 09:13:46;;;;;;;5.15;4.63;;;;;;;;;;5032473;28;20230;-86
2022/09/14 09:16:21;;;;;;;9.73;6.97;;;;;;;;;;5033401;28;20191;-87
2022/09/14 09:18:49;;;;;;;7.10;6.05;;;;;;;;;;5023229;28;20246;-88
2022/09/14 09:21:18;;;;;;;8.40;6.80;;;;;;;;;;5013562;28;20205;-86
2022/09/14 09:23:46;;;;;;;8.15;7.35;;;;;;;;;;5013454;28;20919;-87
2022/09/14 09:26:16;;;;;;;11.52;9.25;;;;;;;;;;5013217;28;20222;-87
2022/09/14 09:28:47;;;;;;;11.50;10.35;;;;;;;;;;5012554;28;20219;-87
2022/09/14 09:31:15;;;;;;;13.60;10.32;;;;;;;;;;5013326;28;20293;-87
2022/09/14 09:33:42;;;;;;;9.75;8.85;;;;;;;;;;5012720;28;20210;-87
2022/09/14 09:36:20;;;;;;;9.75;8.75;;;;;;;;;;5012781;28;20759;-86
2022/09/14 09:38:54;;;;;;;10.15;9.13;;;;;;;;;;5012431;28;20683;-86
2022/09/14 09:41:24;;;;;;;9.90;8.90;;;;;;;;;;5012871;28;20190;-86
2022/09/14 09:44:01;;;;;;;10.38;8.82;;;;;;;;;;5005298;28;20293;-86
2022/09/14 09:46:35;;;;;;;9.82;8.82;;;;;;;;;;5012990;28;20323;-87
2022/09/14 09:49:04;;;;;;;9.25;8.35;;;;;;;;;;5012834;28;20238;-86
2022/09/14 09:51:33;;;;;;;10.52;9.18;;;;;;;;;;5013120;28;20199;-86
2022/09/14 09:54:05;;;;;;;9.63;8.80;;;;;;;;;;5013990;28;20231;-86
2022/09/14 09:56:51;;;;;;;9.82;8.82;;;;;;;;;;5013170;28;20214;-86
2022/09/14 09:59:23;;;;;;;10.32;9.30;;;;;;;;;;5030862;28;20238;-86
2022/09/14 10:01:52;;;;;;;12.00;10.82;;;;;;;;;;5032568;28;20218;-86
2022/09/14 10:04:21;;;;;;;11.55;10.13;;;;;;;;;;5035851;28;20703;-86
2022/09/14 10:06:54;;;;;;;9.88;8.88;;;;;;;;;;5022643;28;20207;-86
2022/09/14 10:09:22;;;;;;;13.02;9.75;;;;;;;;;;5024594;28;20246;-86
2022/09/14 10:11:56;;;;;;;10.93;9.50;;;;;;;;;;5036773;28;20226;-86
2022/09/14 10:14:27;;;;;;;13.73;11.95;;;;;;;;;;5036032;28;20257;-87
2022/09/14 10:16:54;;;;;;;10.38;9.30;;;;;;;;;;5036604;28;20190;-86
2022/09/14 10:19:23;;;;;;;11.73;10.52;;;;;;;;;;5028050;28;20341;-86
2022/09/14 10:22:03;;;;;;;11.45;8.65;;;;;;;;;;5016774;28;20266;-85
2022/09/14 10:24:33;;;;;;;9.65;8.43;;;;;;;;;;5016184;28;20904;-86
2022/09/14 10:27:01;;;;;;;9.25;8.02;;;;;;;;;;5016892;28;20677;-86
2022/09/14 10:29:36;;;;;;;9.70;8.77;;;;;;;;;;5016337;28;20237;-86
2022/09/14 10:32:19;;;;;;;9.57;8.13;;;;;;;;;;5017184;28;20222;-85
2022/09/14 10:34:46;;;;;;;10.43;8.93;;;;;;;;;;5016517;28;20231;-87
2022/09/14 10:37:18;;;;;;;11.13;8.25;;;;;;;;;;5016801;28;20220;-86
2022/09/14 10:40:01;;;;;;;9.40;8.32;;;;;;;;;;5016482;28;20238;-85
2022/09/14 10:42:32;;;;;;;10.18;8.50;;;;;;;;;;5016989;28;20222;-85
2022/09/14 10:45:07;;;;;;;9.35;8.48;;;;;;;;;;5016073;28;20707;-85
2022/09/14 10:47:43;;;;;;;10.77;9.30;;;;;;;;;;5015998;28;20253;-85
2022/09/14 10:50:23;;;;;;;12.65;9.60;;;;;;;;;;5015545;28;20231;-85
2022/09/14 10:52:55;;;;;;;11.25;9.55;;;;;;;;;;5016073;28;20532;-85
2022/09/14 10:55:30;;;;;;;10.45;9.07;;;;;;;;;;5015733;28;20231;-84
2022/09/14 10:58:01;;;;;;;10.23;9.15;;;;;;;;;;5017840;28;20195;-85
2022/09/14 11:00:37;;;;;;;10.60;9.38;;;;;;;;;;5015401;28;20254;-85
2022/09/14 11:03:13;;;;;;;10.18;8.95;;;;;;;;;;5015657;28;20223;-85
2022/09/14 11:05:44;;;;;;;10.13;9.13;;;;;;;;;;5015801;28;20242;-86
2022/09/14 11:08:15;;;;;;;11.50;8.32;;;;;;;;;;5016193;28;20207;-85
2022/09/14 11:10:47;;;;;;;11.60;8.75;;;;;;;;;;5015162;28;20247;-84
2022/09/14 11:13:31;;;;;;;10.10;8.63;;;;;;;;;;5015718;28;20187;-84
2022/09/14 11:16:05;;;;;;;11.57;8.80;;;;;;;;;;4976522;28;20231;-84
2022/09/14 11:18:38;;;;;;;10.35;8.45;;;;;;;;;;5018299;28;20204;-85
2022/09/14 11:21:09;;;;;;;10.00;8.90;;;;;;;;;;5018698;28;20188;-85
2022/09/14 11:23:41;;;;;;;9.30;8.32;;;;;;;;;;5051198;23;20592;-85
2022/09/14 11:26:11;;;;;;;11.25;8.15;;;;;;;;;;5008532;28;20708;-86
2022/09/14 11:28:40;;;;;;;9.68;8.18;;;;;;;;;;4998600;28;20227;-86
2022/09/14 11:31:12;;;;;;;11.30;8.13;;;;;;;;;;5018970;28;20223;-86
2022/09/14 11:33:44;;;;;;;9.77;8.07;;;;;;;;;;5018773;28;20231;-87
2022/09/14 11:36:15;;;;;;;9.00;7.68;;;;;;;;;;4998260;28;20188;-87
2022/09/14 11:38:45;;;;;;;12.35;8.50;;;;;;;;;;4997122;28;20224;-87
2022/09/14 11:41:17;;;;;;;9.52;8.07;;;;;;;;;;4998816;28;20204;-87
2022/09/14 11:43:47;;;;;;;10.35;7.97;;;;;;;;;;4980368;28;20239;-78
2022/09/14 11:46:19;;;;;;;10.32;7.47;;;;;;;;;;4981121;28;20208;-77
2022/09/14 11:48:50;;;;;;;9.07;8.10;;;;;;;;;;4993707;28;20240;-77
2022/09/14 11:51:19;;;;;;;9.63;7.75;;;;;;;;;;4979939;28;20209;-77
2022/09/14 11:53:47;;;;;;;10.27;7.57;;;;;;;;;;4977595;28;20240;-78
2022/09/14 11:56:23;;;;;;;9.85;8.10;;;;;;;;;;4983593;28;20272;-78
2022/09/14 11:58:50;;;;;;;7.95;7.15;;;;;;;;;;4992793;28;20231;-78
2022/09/14 12:01:35;;;;;;;13.40;8.23;;;;;;;;;;4990302;28;20209;-78
2022/09/14 12:04:07;;;;;;;9.25;7.90;;;;;;;;;;4983748;28;20239;-77
2022/09/14 12:06:45;;;;;;;9.95;7.57;;;;;;;;;;4976790;28;20710;-77
2022/09/14 12:09:30;;;;;;;10.77;8.20;;;;;;;;;;4975767;28;20256;-77
2022/09/14 12:11:58;;;;;;;10.10;7.40;;;;;;;;;;4976703;28;20220;-78
2022/09/14 12:14:29;;;;;;;11.23;8.35;;;;;;;;;;4984787;28;20318;-78
2022/09/14 12:17:15;;;;;;;9.95;7.72;;;;;;;;;;4995889;28;20254;-77
2022/09/14 12:19:43;;;;;;;9.05;7.80;;;;;;;;;;4995602;28;20309;-77
2022/09/14 12:22:19;;;;;;;11.43;7.93;;;;;;;;;;4995669;28;20216;-77
2022/09/14 12:24:46;;;;;;;12.40;7.47;;;;;;;;;;4995929;28;20290;-77
2022/09/14 12:27:21;;;;;;;10.25;7.97;;;;;;;;;;4995407;28;20227;-78
2022/09/14 12:29:48;;;;;;;9.80;7.90;;;;;;;;;;4994836;28;20243;-78
2022/09/14 12:32:27;;;;;;;9.90;7.80;;;;;;;;;;4995346;28;20937;-78
2022/09/14 12:35:14;;;;;;;8.50;7.57;;;;;;;;;;4994492;28;20235;-78
2022/09/14 12:37:42;;;;;;;11.35;7.18;;;;;;;;;;4994587;28;20602;-78
2022/09/14 12:40:13;;;;;;;10.70;7.60;;;;;;;;;;5000147;28;20235;-78
2022/09/14 12:42:40;;;;;;;8.32;7.43;;;;;;;;;;4997870;28;20228;-78
2022/09/14 12:45:26;;;;;;;10.48;7.97;;;;;;;;;;5005189;28;20228;-78
2022/09/14 12:47:54;;;;;;;10.63;7.97;;;;;;;;;;5014034;28;20247;-78
2022/09/14 12:50:21;;;;;;;12.88;7.65;;;;;;;;;;4994917;28;20246;-78
2022/09/14 12:52:55;;;;;;;9.30;7.55;;;;;;;;;;4994449;28;20239;-78
2022/09/14 12:55:38;;;;;;;9.48;6.78;;;;;;;;;;4993660;28;20250;-78
2022/09/14 12:58:09;;;;;;;10.18;8.05;;;;;;;;;;4994219;28;20212;-78
2022/09/14 13:00:47;;;;;;;9.20;7.30;;;;;;;;;;4992785;28;20239;-78
2022/09/14 13:03:35;;;;;;;11.35;8.45;;;;;;;;;;4993710;28;20286;-77
2022/09/14 13:06:02;;;;;;;11.70;7.80;;;;;;;;;;4993451;28;20227;-78
2022/09/14 13:08:29;;;;;;;11.55;8.38;;;;;;;;;;4993063;28;20239;-78
2022/09/14 13:10:56;;;;;;;10.45;9.00;;;;;;;;;;4993563;28;20616;-78
2022/09/14 13:13:24;;;;;;;10.90;8.45;;;;;;;;;;4993011;28;20224;-78
2022/09/14 13:15:54;;;;;;;9.55;8.20;;;;;;;;;;4993821;28;20212;-78
2022/09/14 13:18:33;;;;;;;12.00;9.18;;;;;;;;;;4995120;28;20212;-78
2022/09/14 13:21:01;;;;;;;11.07;9.00;;;;;;;;;;5006201;28;20266;-78
2022/09/14 13:23:30;;;;;;;12.20;8.88;;;;;;;;;;5014370;28;20242;-78
2022/09/14 13:25:57;;;;;;;11.77;8.73;;;;;;;;;;5015556;28;20260;-78
2022/09/14 13:28:25;;;;;;;11.20;8.45;;;;;;;;;;5013303;28;20338;-78
2022/09/14 13:30:57;;;;;;;10.43;9.32;;;;;;;;;;5015093;28;20203;-78
2022/09/14 13:33:24;;;;;;;11.25;9.77;;;;;;;;;;5013757;28;20274;-78
2022/09/14 13:35:53;;;;;;;11.25;9.75;;;;;;;;;;5013643;28;20207;-78
2022/09/14 13:38:23;;;;;;;12.23;9.90;;;;;;;;;;5013424;28;20278;-78
2022/09/14 13:40:51;;;;;;;10.13;9.00;;;;;;;;;;5013131;28;20231;-78
2022/09/14 13:43:18;;;;;;;11.50;9.60;;;;;;;;;;5013156;28;20665;-78
2022/09/14 13:45:45;;;;;;;12.75;10.05;;;;;;;;;;5013577;28;20243;-79
2022/09/14 13:48:14;;;;;;;13.80;10.43;;;;;;;;;;5013303;28;20258;-85
2022/09/14 13:50:42;;;;;;;13.20;9.77;;;;;;;;;;5012186;28;20239;-87
2022/09/14 13:53:24;;;;;;;13.55;9.48;;;;;;;;;;5012098;28;20231;-85
2022/09/14 13:55:52;;;;;;;17.70;11.00;;;;;;;;;;5011140;28;20630;-86
2022/09/14 13:58:23;;;;;;;17.83;12.27;;;;;;;;;;5011956;28;20576;-87
2022/09/14 14:00:52;;;;;;;16.85;11.90;;;;;;;;;;5012350;28;20227;-87
2022/09/14 14:03:27;;;;;;;14.55;12.20;;;;;;;;;;5008690;28;20246;-88
2022/09/14 14:05:54;;;;;;;14.85;12.20;;;;;;;;;;5012027;28;20219;-87
2022/09/14 14:08:27;;;;;;;14.70;11.55;;;;;;;;;;5012281;28;20243;-89
2022/09/14 14:10:56;;;;;;;14.35;11.45;;;;;;;;;;5012020;28;20259;-88
2022/09/14 14:13:26;;;;;;;16.65;11.85;;;;;;;;;;5011319;28;20235;-88
2022/09/14 14:15:53;;;;;;;14.05;11.52;;;;;;;;;;5011618;28;20306;-88
2022/09/14 14:18:40;;;;;;;15.18;12.05;;;;;;;;;;5011840;28;20877;-88
2022/09/14 14:21:13;;;;;;;16.75;12.13;;;;;;;;;;5011317;28;20204;-88
2022/09/14 14:23:41;;;;;;;16.40;13.50;;;;;;;;;;5011044;28;20263;-88
2022/09/14 14:26:10;;;;;;;18.15;13.65;;;;;;;;;;5011889;28;20207;-88
2022/09/14 14:28:38;;;;;;;16.55;13.05;;;;;;;;;;5011315;28;20249;-88
2022/09/14 14:31:08;;;;;;;17.30;14.13;;;;;;;;;;5011567;28;20208;-88
2022/09/14 14:33:36;;;;;;;16.60;13.52;;;;;;;;;;5011638;28;20219;-88
2022/09/14 14:36:08;;;;;;;15.18;13.55;;;;;;;;;;5011627;28;20231;-89
2022/09/14 14:38:36;;;;;;;16.92;13.20;;;;;;;;;;5011420;28;20213;-88
2022/09/14 14:41:03;;;;;;;15.23;13.13;;;;;;;;;;5011539;28;20270;-88
2022/09/14 14:43:32;;;;;;;16.35;13.52;;;;;;;;;;5011395;28;20274;-89
2022/09/14 14:46:00;;;;;;;17.25;13.45;;;;;;;;;;5011859;28;20652;-88
2022/09/14 14:48:37;;;;;;;16.10;13.05;;;;;;;;;;5008277;28;20580;-90
2022/09/14 14:51:05;;;;;;;16.83;13.23;;;;;;;;;;5006203;28;20205;-90
2022/09/14 14:53:32;;;;;;;16.83;13.55;;;;;;;;;;5014963;28;20231;-88